createdAt,value
2022-09-23T00:00:12.247Z,13.17
2022-09-23T00:02:38.624Z,13.11
2022-09-23T00:05:05.233Z,13.22
2022-09-23T00:07:31.567Z,13.11
2022-09-23T00:09:59.068Z,13.09
2022-09-23T00:12:25.435Z,13.07
2022-09-23T00:14:51.780Z,13.06
2022-09-23T00:17:18.139Z,13.11
2022-09-23T00:19:44.509Z,13.13
2022-09-23T00:22:10.857Z,13.09
2022-09-23T00:24:37.240Z,13.07
2022-09-23T00:27:03.751Z,13.08
2022-09-23T00:29:31.421Z,13.08
2022-09-23T00:31:57.767Z,13.04
2022-09-23T00:34:24.136Z,13.05
2022-09-23T00:36:50.478Z,12.98
2022-09-23T00:39:16.823Z,12.99
2022-09-23T00:41:43.210Z,13.01
2022-09-23T00:44:28.012Z,13.03
2022-09-23T00:46:54.356Z,12.99
2022-09-23T00:49:30.125Z,13.02
2022-09-23T00:52:02.460Z,12.97
2022-09-23T00:54:29.289Z,13.04
2022-09-23T00:56:56.529Z,12.83
2022-09-23T00:59:24.353Z,12.83
2022-09-23T01:01:54.610Z,12.75
2022-09-23T01:04:23.618Z,12.77
2022-09-23T01:06:49.998Z,12.81
2022-09-23T01:09:16.953Z,12.85
2022-09-23T01:11:57.214Z,12.63
2022-09-23T01:14:23.689Z,12.70
2022-09-23T01:17:01.584Z,12.71
2022-09-23T01:19:51.347Z,12.69
2022-09-23T01:22:28.082Z,12.70
2022-09-23T01:25:13.293Z,12.61
2022-09-23T01:27:58.412Z,12.71
2022-09-23T01:30:44.179Z,12.62
2022-09-23T01:33:10.619Z,12.68
2022-09-23T01:35:49.937Z,12.72
2022-09-23T01:38:35.137Z,12.66
2022-09-23T01:41:13.551Z,12.48
2022-09-23T01:43:42.441Z,12.53
2022-09-23T01:46:16.612Z,12.56
2022-09-23T01:49:05.792Z,12.50
2022-09-23T01:51:38.011Z,12.25
2022-09-23T01:54:08.363Z,12.37
2022-09-23T01:56:46.119Z,12.37
2022-09-23T01:59:14.785Z,12.45
2022-09-23T02:01:47.702Z,12.47
2022-09-23T02:04:22.212Z,12.42
2022-09-23T02:06:53.841Z,12.38
2022-09-23T02:09:24.791Z,12.43
2022-09-23T02:11:52.657Z,12.42
2022-09-23T02:14:24.623Z,12.42
2022-09-23T02:16:51.996Z,12.35
2022-09-23T02:19:27.076Z,12.21
2022-09-23T02:21:58.801Z,12.03
2022-09-23T02:24:28.036Z,11.87
2022-09-23T02:26:58.593Z,12.01
2022-09-23T02:29:31.269Z,11.86
2022-09-23T02:32:17.961Z,11.75
2022-09-23T02:34:50.320Z,11.80
2022-09-23T02:37:27.128Z,12.08
2022-09-23T02:40:02.927Z,12.07
2022-09-23T02:42:44.160Z,12.01
2022-09-23T02:45:10.500Z,11.77
2022-09-23T02:47:39.594Z,12.05
2022-09-23T02:50:06.325Z,11.80
2022-09-23T02:52:33.145Z,11.59
2022-09-23T02:55:00.762Z,12.05
2022-09-23T02:57:27.172Z,12.15
2022-09-23T02:59:53.611Z,12.09
2022-09-23T03:02:30.995Z,12.14
2022-09-23T03:05:09.241Z,12.07
2022-09-23T03:07:38.359Z,11.79
2022-09-23T03:10:12.943Z,11.92
2022-09-23T03:12:47.647Z,12.00
2022-09-23T03:15:23.188Z,12.04
2022-09-23T03:18:01.804Z,11.90
2022-09-23T03:20:34.187Z,11.94
2022-09-23T03:23:02.709Z,11.93
2022-09-23T03:25:31.699Z,11.96
2022-09-23T03:28:00.429Z,11.94
2022-09-23T03:30:26.993Z,11.92
2022-09-23T03:32:54.771Z,11.72
2022-09-23T03:35:23.214Z,11.81
2022-09-23T03:37:52.283Z,11.83
2022-09-23T03:40:25.234Z,11.96
2022-09-23T03:42:52.097Z,12.05
2022-09-23T03:45:21.848Z,11.99
2022-09-23T03:47:48.285Z,12.04
2022-09-23T03:50:14.695Z,12.02
2022-09-23T03:52:41.082Z,12.02
2022-09-23T03:55:07.760Z,11.99
2022-09-23T03:57:34.111Z,12.03
2022-09-23T04:00:00.525Z,11.97
2022-09-23T04:02:26.937Z,11.88
2022-09-23T04:04:53.321Z,11.94
2022-09-23T04:07:19.701Z,11.94
2022-09-23T04:09:46.079Z,11.95
2022-09-23T04:12:13.428Z,11.66
2022-09-23T04:14:39.793Z,11.38
2022-09-23T04:17:06.213Z,11.33
2022-09-23T04:19:32.621Z,11.38
2022-09-23T04:21:58.981Z,11.23
2022-09-23T04:24:25.399Z,11.38
2022-09-23T04:26:53.303Z,11.48
2022-09-23T04:29:20.286Z,11.55
2022-09-23T04:31:46.708Z,11.63
2022-09-23T04:34:13.812Z,11.48
2022-09-23T04:36:40.203Z,11.49
2022-09-23T04:39:06.725Z,11.55
2022-09-23T04:41:33.170Z,11.62
2022-09-23T04:43:59.574Z,11.56
2022-09-23T04:46:26.166Z,11.51
2022-09-23T04:48:52.657Z,11.65
2022-09-23T04:51:20.240Z,11.42
2022-09-23T04:53:47.801Z,11.45
2022-09-23T04:56:18.789Z,11.33
2022-09-23T04:58:46.029Z,11.44
2022-09-23T05:01:14.092Z,11.48
2022-09-23T05:03:41.127Z,11.31
2022-09-23T05:06:07.855Z,11.55
2022-09-23T05:08:34.887Z,11.59
2022-09-23T05:11:02.407Z,11.53
2022-09-23T05:13:28.772Z,11.46
2022-09-23T05:16:06.648Z,11.50
2022-09-23T05:18:34.037Z,11.49
2022-09-23T05:21:00.708Z,11.46
2022-09-23T05:23:27.492Z,11.46
2022-09-23T05:25:58.972Z,11.56
2022-09-23T05:28:29.848Z,11.58
2022-09-23T05:31:04.211Z,11.56
2022-09-23T05:33:31.423Z,11.55
2022-09-23T05:35:57.943Z,11.43
2022-09-23T05:38:24.377Z,11.50
2022-09-23T05:41:01.284Z,11.55
2022-09-23T05:43:27.681Z,11.58
2022-09-23T05:46:07.821Z,11.56
2022-09-23T05:48:35.315Z,11.61
2022-09-23T05:51:02.060Z,11.68
2022-09-23T05:53:29.524Z,11.53
2022-09-23T05:55:56.754Z,11.36
2022-09-23T05:58:24.421Z,11.40
2022-09-23T06:00:51.035Z,11.49
2022-09-23T06:03:19.226Z,11.61
2022-09-23T06:05:46.194Z,11.64
2022-09-23T06:08:12.800Z,11.74
2022-09-23T06:10:40.041Z,11.54
2022-09-23T06:13:06.565Z,11.09
2022-09-23T06:15:32.957Z,11.14
2022-09-23T06:17:59.751Z,11.26
2022-09-23T06:20:26.634Z,11.41
2022-09-23T06:22:55.530Z,11.25
2022-09-23T06:25:22.986Z,11.37
2022-09-23T06:27:56.089Z,11.34
2022-09-23T06:30:23.075Z,11.40
2022-09-23T06:32:51.995Z,11.50
2022-09-23T06:35:26.725Z,11.49
2022-09-23T06:37:54.722Z,11.50
2022-09-23T06:40:22.491Z,11.51
2022-09-23T06:42:56.490Z,11.46
2022-09-23T06:45:23.397Z,11.56
2022-09-23T06:47:56.033Z,11.55
2022-09-23T06:50:23.966Z,11.82
2022-09-23T06:52:55.942Z,11.86
2022-09-23T06:55:27.081Z,11.82
2022-09-23T06:57:59.690Z,11.76
2022-09-23T07:00:26.472Z,11.79
2022-09-23T07:02:54.721Z,11.91
2022-09-23T07:05:22.302Z,11.97
2022-09-23T07:07:48.787Z,12.05
2022-09-23T07:10:15.232Z,12.21
2022-09-23T07:12:41.664Z,12.16
2022-09-23T07:15:08.180Z,12.18
2022-09-23T07:17:34.964Z,12.15
2022-09-23T07:20:02.043Z,12.04
2022-09-23T07:22:28.414Z,12.17
2022-09-23T07:24:57.696Z,12.33
2022-09-23T07:27:25.318Z,12.33
2022-09-23T07:29:52.166Z,12.20
2022-09-23T07:32:19.459Z,12.25
2022-09-23T07:34:47.058Z,12.34
2022-09-23T07:37:14.050Z,12.32
2022-09-23T07:39:41.810Z,12.44
2022-09-23T07:42:08.220Z,12.48
2022-09-23T07:44:34.847Z,12.53
2022-09-23T07:47:01.388Z,12.66
2022-09-23T07:49:27.980Z,12.68
2022-09-23T07:51:54.373Z,12.64
2022-09-23T07:54:20.842Z,12.64
2022-09-23T07:56:47.205Z,12.64
2022-09-23T07:59:15.383Z,12.73
2022-09-23T08:01:44.094Z,12.71
2022-09-23T08:04:16.277Z,12.72
2022-09-23T08:06:43.994Z,12.83
2022-09-23T08:09:10.952Z,13.10
2022-09-23T08:11:41.668Z,13.22
2022-09-23T08:14:13.006Z,13.36
2022-09-23T08:16:40.223Z,13.38
2022-09-23T08:19:07.216Z,13.13
2022-09-23T08:21:33.887Z,13.18
2022-09-23T08:24:00.587Z,13.33
2022-09-23T08:26:28.477Z,13.27
2022-09-23T08:28:55.668Z,13.22
2022-09-23T08:31:23.165Z,13.44
2022-09-23T08:33:56.400Z,13.54
2022-09-23T08:36:23.070Z,13.41
2022-09-23T08:38:49.454Z,13.32
2022-09-23T08:41:18.877Z,13.50
2022-09-23T08:43:48.672Z,13.62
2022-09-23T08:46:19.578Z,13.66
2022-09-23T08:48:47.754Z,13.68
2022-09-23T08:51:15.917Z,13.72
2022-09-23T08:53:42.858Z,13.83
2022-09-23T08:56:20.042Z,14.05
2022-09-23T08:58:46.412Z,13.82
2022-09-23T09:01:16.296Z,13.91
2022-09-23T09:03:51.859Z,14.06
2022-09-23T09:06:52.303Z,14.16
2022-09-23T09:09:23.715Z,14.17
2022-09-23T09:11:52.456Z,14.23
2022-09-23T09:14:42.381Z,14.07
2022-09-23T09:17:21.995Z,14.12
2022-09-23T09:20:21.311Z,14.20
2022-09-23T09:22:48.393Z,14.26
2022-09-23T09:25:24.096Z,14.26
2022-09-23T09:27:51.584Z,14.30
2022-09-23T09:30:22.796Z,14.44
2022-09-23T09:32:57.959Z,14.49
2022-09-23T09:35:38.479Z,14.58
2022-09-23T09:38:05.760Z,14.79
2022-09-23T09:40:34.521Z,14.80
2022-09-23T09:43:04.392Z,14.92
2022-09-23T09:45:41.700Z,15.14
2022-09-23T09:48:17.885Z,15.05
2022-09-23T09:50:47.147Z,15.25
2022-09-23T09:53:20.231Z,15.18
2022-09-23T09:55:48.306Z,15.08
2022-09-23T09:58:16.693Z,15.28
2022-09-23T10:00:45.598Z,15.44
2022-09-23T10:03:14.776Z,15.71
2022-09-23T10:05:44.818Z,15.66
2022-09-23T10:08:29.499Z,15.79
2022-09-23T10:10:59.025Z,15.80
2022-09-23T10:13:26.435Z,15.79
2022-09-23T10:15:54.850Z,15.69
2022-09-23T10:18:28.516Z,15.82
2022-09-23T10:21:25.513Z,15.85
2022-09-23T10:23:57.218Z,15.97
2022-09-23T10:26:34.070Z,16.07
2022-09-23T10:29:05.007Z,16.29
2022-09-23T10:31:32.638Z,16.32
2022-09-23T10:34:00.353Z,16.18
2022-09-23T10:36:35.488Z,16.39
2022-09-23T10:39:21.867Z,16.40
2022-09-23T10:42:18.991Z,16.64
2022-09-23T10:45:07.071Z,16.66
2022-09-23T10:47:40.369Z,16.74
2022-09-23T10:50:25.459Z,16.88
2022-09-23T10:53:10.737Z,17.10
2022-09-23T10:55:57.358Z,17.13
2022-09-23T10:58:42.050Z,17.15
2022-09-23T11:01:13.401Z,17.25
2022-09-23T11:03:52.177Z,17.39
2022-09-23T11:06:25.032Z,17.53
2022-09-23T11:08:59.159Z,17.49
2022-09-23T11:12:04.197Z,17.35
2022-09-23T11:14:50.226Z,17.28
2022-09-23T11:17:19.641Z,17.45
2022-09-23T11:19:48.776Z,17.58
2022-09-23T11:22:18.186Z,17.50
2022-09-23T11:24:51.974Z,17.74
2022-09-23T11:27:30.905Z,17.81
2022-09-23T11:30:07.647Z,17.73
2022-09-23T11:32:39.515Z,18.21
2022-09-23T11:35:16.218Z,18.34
2022-09-23T11:37:48.304Z,18.17
2022-09-23T11:40:17.899Z,18.05
2022-09-23T11:42:53.602Z,17.97
2022-09-23T11:45:23.321Z,17.93
2022-09-23T11:47:56.983Z,17.99
2022-09-23T11:50:27.980Z,18.03
2022-09-23T11:53:15.541Z,17.96
2022-09-23T11:55:57.495Z,17.83
2022-09-23T12:01:16.203Z,18.40
2022-09-23T12:03:58.201Z,18.25
2022-09-23T12:06:31.081Z,18.32
2022-09-23T12:09:04.090Z,18.37
2022-09-23T12:11:36.540Z,18.33
2022-09-23T12:14:09.042Z,18.54
2022-09-23T12:16:38.475Z,18.40
2022-09-23T12:19:23.978Z,18.25
2022-09-23T12:21:53.473Z,18.36
2022-09-23T12:24:22.867Z,18.50
2022-09-23T12:26:51.344Z,18.51
2022-09-23T12:29:17.877Z,18.66
2022-09-23T12:31:46.870Z,18.69
2022-09-23T12:34:22.127Z,18.43
2022-09-23T12:36:48.933Z,18.56
2022-09-23T12:39:15.324Z,18.46
2022-09-23T12:41:43.776Z,18.35
2022-09-23T12:44:28.897Z,18.37
2022-09-23T12:47:21.191Z,18.43
2022-09-23T12:49:48.491Z,18.65
2022-09-23T12:52:17.667Z,18.94
2022-09-23T12:54:48.409Z,18.98
2022-09-23T12:57:33.216Z,18.99
2022-09-23T13:00:13.058Z,19.13
2022-09-23T13:03:09.476Z,18.97
2022-09-23T13:06:02.113Z,18.75
2022-09-23T13:08:28.821Z,18.94
2022-09-23T13:10:57.831Z,18.84
2022-09-23T13:13:27.334Z,18.80
2022-09-23T13:15:54.886Z,18.66
2022-09-23T13:18:21.295Z,18.46
2022-09-23T13:20:51.354Z,18.58
2022-09-23T13:23:22.345Z,18.67
2022-09-23T13:25:51.417Z,18.64
2022-09-23T13:28:25.829Z,18.49
2022-09-23T13:30:52.575Z,18.63
2022-09-23T13:33:23.005Z,18.60
2022-09-23T13:35:53.169Z,18.64
2022-09-23T13:38:26.740Z,18.54
2022-09-23T13:40:54.993Z,18.64
2022-09-23T13:43:27.358Z,18.71
2022-09-23T13:45:53.827Z,18.72
2022-09-23T13:48:23.665Z,18.64
2022-09-23T13:50:51.145Z,18.51
2022-09-23T13:53:28.296Z,18.51
2022-09-23T13:56:02.267Z,18.46
2022-09-23T13:58:29.865Z,18.53
2022-09-23T14:00:56.364Z,18.40
2022-09-23T14:03:35.876Z,18.57
2022-09-23T14:06:08.782Z,18.66
2022-09-23T14:08:35.804Z,18.40
2022-09-23T14:11:06.171Z,18.26
2022-09-23T14:13:41.356Z,18.24
2022-09-23T14:16:09.834Z,18.35
2022-09-23T14:18:38.842Z,18.31
2022-09-23T14:21:05.604Z,18.28
2022-09-23T14:23:32.038Z,18.31
2022-09-23T14:25:58.991Z,18.55
2022-09-23T14:28:26.880Z,18.66
2022-09-23T14:30:54.645Z,18.74
2022-09-23T14:33:40.248Z,18.69
2022-09-23T14:36:31.193Z,18.70
2022-09-23T14:39:01.783Z,18.76
2022-09-23T14:41:28.273Z,18.50
2022-09-23T14:44:01.668Z,18.56
2022-09-23T14:46:34.083Z,18.51
2022-09-23T14:49:14.521Z,18.49
2022-09-23T14:51:49.332Z,18.56
2022-09-23T14:54:22.217Z,18.56
2022-09-23T14:56:48.580Z,18.66
2022-09-23T14:59:25.545Z,18.48
2022-09-23T15:01:52.109Z,18.59
2022-09-23T15:04:21.449Z,18.59
2022-09-23T15:06:53.189Z,18.59
2022-09-23T15:09:24.813Z,18.68
2022-09-23T15:12:02.181Z,18.68
2022-09-23T15:14:39.145Z,18.71
2022-09-23T15:17:14.344Z,18.64
2022-09-23T15:19:40.744Z,18.59
2022-09-23T15:22:08.881Z,18.34
2022-09-23T15:24:42.782Z,18.45
2022-09-23T15:27:10.373Z,18.54
2022-09-23T15:29:36.722Z,18.26
2022-09-23T15:32:03.138Z,18.35
2022-09-23T15:34:30.819Z,18.49
2022-09-23T15:36:57.229Z,18.46
2022-09-23T15:39:32.026Z,18.55
2022-09-23T15:42:02.359Z,18.54
2022-09-23T15:44:29.828Z,18.59
2022-09-23T15:46:59.136Z,18.48
2022-09-23T15:49:36.221Z,18.50
2022-09-23T15:52:04.581Z,18.49
2022-09-23T15:54:32.319Z,18.45
2022-09-23T15:56:58.680Z,18.52
2022-09-23T15:59:25.080Z,18.54
2022-09-23T16:01:52.332Z,18.53
2022-09-23T16:04:18.996Z,18.51
2022-09-23T16:06:48.250Z,18.49
2022-09-23T16:09:15.509Z,18.44
2022-09-23T16:11:47.038Z,18.42
2022-09-23T16:14:15.119Z,18.39
2022-09-23T16:16:43.761Z,18.36
2022-09-23T16:19:10.767Z,18.18
2022-09-23T16:21:37.139Z,18.14
2022-09-23T16:24:04.333Z,18.25
2022-09-23T16:26:32.664Z,18.09
2022-09-23T16:28:59.502Z,18.20
2022-09-23T16:31:29.540Z,18.24
2022-09-23T16:34:02.590Z,18.29
2022-09-23T16:36:33.290Z,18.16
2022-09-23T16:39:01.817Z,18.13
2022-09-23T16:41:29.324Z,18.15
2022-09-23T16:43:56.255Z,18.09
2022-09-23T16:46:23.888Z,18.11
2022-09-23T16:48:52.952Z,18.08
2022-09-23T16:51:21.058Z,18.09
2022-09-23T16:53:49.267Z,18.02
2022-09-23T16:56:16.905Z,18.04
2022-09-23T16:58:43.717Z,18.04
2022-09-23T17:01:32.681Z,18.01
2022-09-23T17:03:59.213Z,17.98
2022-09-23T17:06:27.799Z,17.97
2022-09-23T17:08:54.323Z,17.93
2022-09-23T17:11:21.161Z,17.91
2022-09-23T17:13:47.899Z,17.89
2022-09-23T17:16:25.354Z,17.85
2022-09-23T17:18:55.159Z,17.84
2022-09-23T17:21:26.537Z,17.82
2022-09-23T17:23:56.452Z,17.80
2022-09-23T17:26:23.944Z,17.75
2022-09-23T17:28:51.330Z,17.76
2022-09-23T17:31:17.862Z,17.70
2022-09-23T17:33:44.269Z,17.67
2022-09-23T17:36:12.839Z,17.64
2022-09-23T17:38:39.454Z,17.62
2022-09-23T17:41:06.882Z,17.60
2022-09-23T17:43:33.433Z,17.56
2022-09-23T17:46:06.175Z,17.53
2022-09-23T17:48:34.262Z,17.51
2022-09-23T17:51:02.238Z,17.49
2022-09-23T17:53:32.708Z,17.46
2022-09-23T17:56:04.202Z,17.42
2022-09-23T17:58:31.713Z,17.39
2022-09-23T18:00:58.296Z,17.37
2022-09-23T18:03:25.476Z,17.34
2022-09-23T18:05:51.925Z,17.34
2022-09-23T18:08:18.469Z,17.29
2022-09-23T18:10:44.865Z,17.26
2022-09-23T18:13:11.629Z,17.23
2022-09-23T18:15:38.767Z,17.19
2022-09-23T18:18:05.857Z,17.15
2022-09-23T18:20:32.711Z,17.13
2022-09-23T18:22:59.119Z,17.10
2022-09-23T18:25:38.573Z,17.08
2022-09-23T18:28:06.074Z,17.05
2022-09-23T18:30:32.922Z,17.04
2022-09-23T18:32:59.665Z,17.00
2022-09-23T18:35:26.036Z,17.00
2022-09-23T18:37:52.460Z,16.95
2022-09-23T18:40:19.044Z,16.94
2022-09-23T18:42:45.511Z,16.90
2022-09-23T18:45:11.864Z,16.88
2022-09-23T18:47:56.994Z,16.86
2022-09-23T18:50:43.226Z,16.83
2022-09-23T18:53:10.139Z,16.80
2022-09-23T18:55:36.724Z,16.77
2022-09-23T18:58:03.234Z,16.73
2022-09-23T19:00:29.997Z,16.71
2022-09-23T19:02:56.604Z,16.69
2022-09-23T19:05:22.984Z,16.68
2022-09-23T19:07:49.344Z,16.63
2022-09-23T19:10:15.719Z,16.58
2022-09-23T19:12:42.307Z,16.58
2022-09-23T19:15:09.195Z,16.56
2022-09-23T19:17:35.554Z,16.54
2022-09-23T19:20:02.074Z,16.52
2022-09-23T19:22:30.385Z,16.49
2022-09-23T19:24:56.768Z,16.46
2022-09-23T19:27:23.412Z,16.44
2022-09-23T19:29:50.187Z,16.42
2022-09-23T19:32:16.990Z,16.40
2022-09-23T19:34:44.299Z,16.37
2022-09-23T19:37:10.801Z,16.36
2022-09-23T19:39:37.501Z,16.37
2022-09-23T19:42:03.953Z,16.36
2022-09-23T19:44:30.327Z,16.33
2022-09-23T19:46:57.365Z,16.32
2022-09-23T19:49:25.020Z,16.28
2022-09-23T19:51:52.865Z,16.25
2022-09-23T19:54:20.595Z,16.25
2022-09-23T19:56:48.683Z,16.23
2022-09-23T19:59:18.470Z,16.23
2022-09-23T20:01:46.090Z,16.22
2022-09-23T20:04:12.465Z,16.19
2022-09-23T20:06:39.351Z,16.18
2022-09-23T20:09:05.891Z,16.17
2022-09-23T20:11:33.365Z,16.14
2022-09-23T20:14:01.505Z,16.14
2022-09-23T20:16:29.881Z,16.13
2022-09-23T20:18:56.554Z,16.11
2022-09-23T20:21:22.928Z,16.09
2022-09-23T20:23:49.331Z,16.08
2022-09-23T20:26:34.570Z,16.09
2022-09-23T20:29:01.302Z,16.09
2022-09-23T20:31:28.636Z,16.06
2022-09-23T20:33:58.240Z,16.05
2022-09-23T20:36:25.755Z,16.02
2022-09-23T20:38:55.797Z,16.03
2022-09-23T20:41:22.323Z,16.00
2022-09-23T20:43:52.351Z,16.00
2022-09-23T20:46:18.769Z,15.98
2022-09-23T20:48:46.342Z,15.98
2022-09-23T20:51:12.702Z,15.98
2022-09-23T20:53:39.066Z,15.93
2022-09-23T20:56:08.362Z,15.93
2022-09-23T20:58:38.118Z,15.92
2022-09-23T21:01:06.520Z,15.94
2022-09-23T21:03:32.992Z,15.93
2022-09-23T21:06:00.145Z,15.91
2022-09-23T21:08:26.546Z,15.91
2022-09-23T21:10:53.798Z,15.89
2022-09-23T21:13:20.270Z,15.90
2022-09-23T21:15:46.637Z,15.88
2022-09-23T21:18:16.337Z,15.87
2022-09-23T21:20:53.028Z,15.86
2022-09-23T21:23:21.847Z,15.85
2022-09-23T21:25:48.379Z,15.84
2022-09-23T21:28:14.750Z,15.82
2022-09-23T21:30:42.083Z,15.81
2022-09-23T21:33:08.470Z,15.78
2022-09-23T21:35:34.865Z,15.78
2022-09-23T21:38:01.268Z,15.77
2022-09-23T21:40:46.639Z,15.76
2022-09-23T21:43:13.165Z,15.75
2022-09-23T21:45:39.527Z,15.74
2022-09-23T21:48:05.872Z,15.72
2022-09-23T21:50:32.459Z,15.71
2022-09-23T21:52:58.815Z,15.71
2022-09-23T21:55:25.425Z,15.69
2022-09-23T21:57:51.802Z,15.68
2022-09-23T22:00:18.197Z,15.68
2022-09-23T22:02:44.631Z,15.66
2022-09-23T22:05:11.140Z,15.66
2022-09-23T22:07:40.240Z,15.65
2022-09-23T22:10:06.976Z,15.63
2022-09-23T22:12:33.725Z,15.64
2022-09-23T22:15:00.098Z,15.59
2022-09-23T22:17:26.472Z,15.58
2022-09-23T22:19:52.857Z,15.58
2022-09-23T22:22:19.390Z,15.59
2022-09-23T22:24:46.810Z,15.48
2022-09-23T22:27:14.088Z,15.42
2022-09-23T22:29:59.250Z,15.49
2022-09-23T22:32:40.607Z,15.49
2022-09-23T22:35:16.628Z,15.50
2022-09-23T22:37:43.017Z,15.50
2022-09-23T22:40:11.042Z,15.47
2022-09-23T22:42:37.578Z,15.47
2022-09-23T22:45:05.700Z,15.47
2022-09-23T22:47:37.031Z,15.46
2022-09-23T22:50:07.769Z,15.44
2022-09-23T22:52:34.787Z,15.44
2022-09-23T22:55:01.270Z,15.44
2022-09-23T22:57:27.890Z,15.43
2022-09-23T22:59:54.553Z,15.43
2022-09-23T23:02:23.634Z,15.41
2022-09-23T23:04:50.428Z,15.41
2022-09-23T23:07:20.781Z,15.45
2022-09-23T23:09:51.202Z,15.40
2022-09-23T23:12:21.154Z,15.40
2022-09-23T23:14:48.010Z,15.40
2022-09-23T23:17:14.407Z,15.41
2022-09-23T23:19:40.835Z,15.37
2022-09-23T23:22:07.194Z,15.38
2022-09-23T23:24:33.647Z,15.36
2022-09-23T23:26:59.997Z,15.34
2022-09-23T23:29:27.682Z,15.33
2022-09-23T23:31:54.117Z,15.34
2022-09-23T23:34:20.922Z,15.35
2022-09-23T23:36:47.998Z,15.34
2022-09-23T23:39:14.585Z,15.31
2022-09-23T23:41:41.538Z,15.31
2022-09-23T23:44:08.554Z,15.29
2022-09-23T23:46:37.034Z,15.27
2022-09-23T23:49:03.705Z,15.31
2022-09-23T23:51:30.147Z,15.29
2022-09-23T23:53:58.576Z,15.26
2022-09-23T23:56:25.618Z,15.26
2022-09-23T23:58:59.084Z,15.25
